KBGD

Hutchinson County Airport

Borger, Texas, USA
METAR KBGD 151851Z AUTO 25016G21KT 10SM CLR 10/M03 A3014 RMK AO2 PRESFR SLP210 T01001033
Observed Flight Rules
Dec-15 @ 18:51 UTC (50 minutes ago) Visual Flight Rules
Wind Visibility Clouds
250° at 16 knots
 Gusting to 21 knots
10 miles
  • Clear skies
Temperatures Readings
Current 10°C / 50°F
Dewpoint -3°C / 27°F
Humidity 40%
Altimeter 30.14" Hg
Pressure 1021 hPa
Elevation 927
METAR KBGD 151851Z AUTO 25016G21KT 10SM CLR 10/M03 A3014 RMK AO2 PRESFR SLP210 T01001033
Observed Flight Rules
Dec-15 @ 18:51 UTC
(50 minutes ago)
VFR
Wind Visibility
250° at 16 knots
 Gusting to 21 knots
10 miles
Clouds
  • Clear skies
Temperature Dewpoint
10°C / 50°F -3°C / 27°F
Humidity Altimeter Pressure
40% 30.14" Hg 1021 hPa